Wednesday, January 17, 2018, 11:24 AM GMT
Back to Local

CYFC, Fredericton, N. B.

Location: , , Canada Lat: 45.867
Local Time: 11:24 AM GMT (11:24 GMT) Lon: -66.533
Time Zone: GMT Elev: 55 ft

Show me the last for .
Show Decoded

2018-01-17 11:00 METAR CYFC 171100Z AUTO 19002KT 1 3/4SM -SN OVC030 M12/M13 A3045 RMK SLP314 =
2018-01-17 10:53 METAR CYFC 171053Z AUTO 18002KT 1 3/4SM -SN OVC032 M12/M13 A3045 RMK SLP313 =
2018-01-17 10:47 METAR CYFC 171047Z AUTO 18003KT 2 1/4SM -SN OVC034 M12/M13 A3045 RMK SLP313 =
2018-01-17 10:00 METAR CYFC 171000Z AUTO 00000KT 5SM -SN OVC050 M12/M13 A3044 RMK SLP311 =
2018-01-17 09:37 METAR CYFC 170937Z AUTO 00000KT 5SM -SN OVC055 M12/M14 A3043 RMK SLP309 =
2018-01-17 09:29 METAR CYFC 170929Z AUTO 00000KT 9SM -SN BKN055 OVC069 M13/M14 A3044 RMK SLP311 =
2018-01-17 09:00 METAR CYFC 170900Z AUTO 00000KT 9SM BKN060 BKN072 BKN180 M13/M14 A3044 RMK
                 SLP310 =
2018-01-17 08:00 METAR CYFC 170800Z AUTO 00000KT 9SM BKN050 OVC070 M13/M14 A3044 RMK SLP311 =
2018-01-17 07:00 METAR CYFC 170700Z AUTO 00000KT 9SM FEW060 M14/M15 A3045 RMK SLP315 =
2018-01-17 06:00 METAR CYFC 170600Z AUTO 17003KT 9SM FEW090 SCT220 M14/M15 A3045 RMK SLP315 =
2018-01-17 05:00 METAR CYFC 170500Z AUTO 00000KT 9SM SCT150 BKN170 BKN200 M14/M15 A3045 RMK
                 SLP314 =
2018-01-17 04:00 METAR CYFC 170400Z AUTO 00000KT 9SM SCT150 BKN180 M14/M15 A3046 RMK SLP319 =
2018-01-17 03:00 METAR CYFC 170300Z AUTO 20003KT 9SM BKN220 M15/M16 A3048 RMK SLP324 =
2018-01-17 02:00 METAR CYFC 170200Z AUTO 20005KT 9SM CLR M15/M16 A3048 RMK SLP324 =
2018-01-17 01:00 METAR CYFC 170100Z AUTO 19003KT 9SM CLR M14/M15 A3048 RMK SLP325 =
2018-01-17 00:00 METAR CYFC 170000Z AUTO 26003KT 9SM CLR M12/M13 A3049 RMK SLP327 =
2018-01-16 23:00 METAR CYFC 162300Z AUTO 26003KT 9SM CLR M11/M12 A3048 RMK SLP323 =
2018-01-16 22:41 METAR CYFC 162241Z AUTO 26005KT 9SM SCT021 M10/M12 A3048 RMK SLP323 =
2018-01-16 22:21 METAR CYFC 162221Z AUTO 25003KT 9SM BKN021 M10/M11 A3047 RMK SLP322 =
2018-01-16 22:03 METAR CYFC 162203Z AUTO 23002KT 9SM SCT023 M10/M11 A3047 RMK PRESRR SLP320 =
2018-01-16 22:00 METAR CYFC 162200Z AUTO 21003KT 9SM BKN023 M10/M11 A3046 RMK SLP319 =
2018-01-16 21:54 METAR CYFC 162154Z AUTO 21004KT 9SM BKN021 M10/M11 A3046 RMK SLP317 =
2018-01-16 21:47 METAR CYFC 162147Z AUTO VRB02KT 9SM SCT021 M09/M10 A3046 RMK SLP317 =
2018-01-16 21:39 METAR CYFC 162139Z AUTO 16002KT 9SM BKN021 M09/M11 A3046 RMK SLP316 =
2018-01-16 21:00 METAR CYFC 162100Z AUTO 00000KT 9SM -SN OVC019 M08/M10 A3045 RMK SLP315 =
2018-01-16 20:00 METAR CYFC 162000Z AUTO 04002KT 9SM -SN BKN021 OVC029 M08/M10 A3045 RMK SLP314 =
2018-01-16 19:51 METAR CYFC 161951Z AUTO 06003KT 9SM -SN BKN021 OVC029 M08/M10 A3045 RMK SLP313 =
2018-01-16 19:20 METAR CYFC 161920Z AUTO VRB02KT 9SM -SN SCT014 SCT019 OVC031 M08/M11 A3044 RMK
                 SLP311 =
2018-01-16 19:01 METAR CYFC 161901Z AUTO VRB02KT 6SM -SN BKN015 OVC033 M08/M10 A3044 RMK SLP310 =
2018-01-16 19:00 METAR CYFC 161900Z AUTO VRB02KT 4SM -SN BKN015 OVC033 M08/M10 A3044 RMK SLP310 =
2018-01-16 18:58 METAR CYFC 161858Z AUTO 00000KT 3SM -SN BKN015 OVC033 M08/M10 A3044 RMK SLP310 =
2018-01-16 18:57 METAR CYFC 161857Z AUTO 00000KT 2 1/4SM -SN BKN015 OVC033 M08/M10 A3044 RMK VIS
                 VRB 5/8-3 SLP310 =
2018-01-16 18:47 METAR CYFC 161847Z AUTO 00000KT 1 3/4SM -SN BKN012 OVC018 M08/M10 A3043 RMK VIS
                 VRB 3/4-3 SLP309 =
2018-01-16 18:44 METAR CYFC 161844Z AUTO 00000KT 2SM -SN BKN012 OVC018 M08/M10 A3044 RMK VIS VRB
                 3/4-3 SLP310 =
2018-01-16 18:00 METAR CYFC 161800Z AUTO VRB02KT 3/4SM R09/P6000FT/N -SN OVC014 M08/M10 A3044 RMK
                 SLP312 =
2018-01-16 17:24 METAR CYFC 161724Z AUTO 04002KT 1 3/4SM -SN OVC012 M09/M10 A3043 RMK SLP307 =
2018-01-16 17:18 METAR CYFC 161718Z AUTO 02003KT 350V070 2 1/4SM -SN OVC012 M09/M10 A3042 RMK
                 PRESFR SLP305 =
2018-01-16 17:00 METAR CYFC 161700Z AUTO 34003KT 4SM -SN OVC012 M09/M11 A3044 RMK SLP310 =
2018-01-16 16:51 METAR CYFC 161651Z AUTO 35003KT 320V020 5SM -SN OVC010 M09/M10 A3044 RMK PRESFR
                 SLP311 =
2018-01-16 16:45 METAR CYFC 161645Z AUTO 01005KT 6SM -SN OVC010 M09/M10 A3044 RMK SLP312 =
2018-01-16 16:32 METAR CYFC 161632Z AUTO 35005KT 320V060 5SM -SN OVC010 M09/M10 A3045 RMK SLP314
                 =
2018-01-16 16:00 METAR CYFC 161600Z AUTO 04004KT 340V060 8SM -SN OVC010 M09/M11 A3046 RMK PRESFR
                 SLP318 =
2018-01-16 15:00 METAR CYFC 161500Z AUTO 03007KT 9SM -SN OVC012 M10/M11 A3048 RMK SLP324 =
2018-01-16 14:04 METAR CYFC 161404Z AUTO 03007KT 6SM -SN OVC012 M10/M11 A3049 RMK SLP329 =
2018-01-16 14:00 METAR CYFC 161400Z AUTO 02007KT 4SM -SN OVC012 M10/M11 A3049 RMK SLP329 =
2018-01-16 13:05 METAR CYFC 161305Z AUTO 02006KT 5SM -SN OVC012 M10/M11 A3050 RMK SLP332 =
2018-01-16 13:00 METAR CYFC 161300Z AUTO 02008KT 6SM -SN OVC012 M10/M11 A3049 RMK SLP329 =
2018-01-16 12:00 METAR CYFC 161200Z AUTO 02008KT 9SM -SN OVC014 M10/M12 A3048 RMK SLP323 =

Support USWX by starting your Amazon purchase here.